Flight Track Log - Related Links

Times and Time Zones

All times are in EST time to prevent confusion due to time zone crossing. See the N7724Q flight status page for this flight to view local times or setup timezone preferences in your user account.

Time Position Orientation Groundspeed Altitude Reporting Facility
EST Latitude Longitude Course Direction KTS MPH feet Rate Location/Type
Sun 08:24:00 PM 32.7186 -80.6852 350° North  Level Estimated
Sun 08:25:00 PM 32.7623 -80.6926 352° North  Level FlightAware Approximate
Sun 08:26:00 PM 32.8061 -80.7000 352° North  Level FlightAware Approximate
Sun 08:27:00 PM 32.8498 -80.7074 352° North  Level FlightAware Approximate
Sun 08:28:00 PM 32.8936 -80.7147 352° North  Level FlightAware Approximate
Sun 08:29:00 PM 32.9374 -80.7221 352° North  Level Estimated
Sun 08:30:00 PM 32.9812 -80.7290 352° North  Level FlightAware Approximate
Sun 08:31:00 PM 33.0250 -80.7360 352° North  Level FlightAware Approximate
Sun 08:32:00 PM 33.0688 -80.7430 352° North  Level FlightAware Approximate
Sun 08:33:00 PM 33.1126 -80.7500 352° North  Level FlightAware Approximate
Sun 08:34:00 PM 33.1564 -80.7570 352° North  Level FlightAware Approximate
Sun 08:35:00 PM 33.2002 -80.7640 352° North  Level FlightAware Approximate
Sun 08:36:00 PM 33.2440 -80.7710 352° North  Level FlightAware Approximate
Sun 08:37:00 PM 33.2879 -80.7780 352° North  Level FlightAware Approximate
Sun 08:38:00 PM 33.3317 -80.7850 352° North  Level FlightAware Approximate
Sun 08:39:00 PM 33.3755 -80.7921 352° North  Level FlightAware Approximate
Sun 08:40:00 PM 33.4193 -80.7991 352° North  Level FlightAware Approximate
Sun 08:41:00 PM 33.4631 -80.8062 352° North  Level FlightAware Approximate
Sun 08:42:00 PM 33.5069 -80.8132 352° North  Level FlightAware Approximate
Sun 08:43:00 PM 33.5507 -80.8203 352° North  Level FlightAware Approximate
Sun 08:44:00 PM 33.5945 -80.8273 352° North  Level FlightAware Approximate
Sun 08:45:00 PM 33.6383 -80.8344 352° North  Level FlightAware Approximate
Sun 08:46:00 PM 33.6821 -80.8415 352° North  Level FlightAware Approximate
Sun 08:47:00 PM 33.7259 -80.8486 352° North  Level FlightAware Approximate
Sun 08:48:00 PM 33.7697 -80.8557 352° North  Level FlightAware Approximate
Sun 08:49:00 PM 33.8135 -80.8628 352° North  Level FlightAware Approximate
Sun 08:50:00 PM 33.8573 -80.8699 352° North  Level FlightAware Approximate
Sun 08:51:00 PM 33.9011 -80.8770 352° North  Level FlightAware Approximate
Sun 08:52:00 PM 33.9449 -80.8841 352° North  Level FlightAware Approximate
Sun 08:53:00 PM 33.9887 -80.8913 352° North  Level FlightAware Approximate
Sun 08:54:00 PM 34.0325 -80.8984 352° North  Level FlightAware Approximate
Sun 08:55:00 PM 34.0763 -80.9056 352° North  Level FlightAware Approximate
Sun 08:56:00 PM 34.1201 -80.9127 352° North  Level FlightAware Approximate
Sun 08:57:00 PM 34.1639 -80.9199 352° North  Level FlightAware Approximate
Sun 08:58:00 PM 34.2077 -80.9270 352° North  Level FlightAware Approximate
Sun 08:59:00 PM 34.2515 -80.9342 352° North  Level FlightAware Approximate
Sun 09:00:00 PM 34.2952 -80.9422 351° North  Level Estimated
Sun 09:01:00 PM 34.3389 -80.9502 351° North  Level FlightAware Approximate
Sun 09:02:00 PM 34.3826 -80.9583 351° North  Level FlightAware Approximate
Sun 09:03:00 PM 34.4263 -80.9663 351° North  Level FlightAware Approximate
Sun 09:03:38 PM 34.3314 -80.9472 351° North 158 182 5,200  Level Atlanta Center
Sun 09:04:00 PM 34.4700 -80.9744 351° North  Level FlightAware Approximate
Sun 09:04:45 PM 34.3739 -80.9733 333° Northwest 169 194 5,200  Level Atlanta Center
Sun 09:05:00 PM 34.5137 -80.9825 351° North  Level FlightAware Approximate
Sun 09:05:52 PM 34.4064 -81.0250 307° West 170 196 5,100  Level Atlanta Center
Sun 09:06:00 PM 34.5574 -80.9905 351° North  Level FlightAware Approximate
Sun 09:06:53 PM 34.4325 -81.0719 304° West 170 196 5,100  Level Atlanta Center
Sun 09:07:00 PM 34.6011 -80.9986 351° North  Level FlightAware Approximate
Sun 09:07:48 PM 34.4586 -81.1139 307° West 173 199 5,100  Level Atlanta Center
Sun 09:08:00 PM 34.6448 -81.0067 351° North  Level FlightAware Approximate
Sun 09:08:43 PM 34.4947 -81.1431 326° Northwest 157 181 5,100  Level Atlanta Center
Sun 09:09:00 PM 34.6885 -81.0148 351° North  Level FlightAware Approximate
Sun 09:09:50 PM 34.5369 -81.1667 335° Northwest 154 177 5,100  Level Atlanta Center
Sun 09:10:50 PM 34.5814 -81.1903 336° Northwest 157 181 5,100  Level Atlanta Center
Sun 09:11:51 PM 34.6172 -81.2094 336° Northwest 155 178 5,100  Level Atlanta Center
Sun 09:12:46 PM 34.6572 -81.2206 347° North 154 177 5,100  Level Atlanta Center
Sun 09:13:59 PM 34.7036 -81.2394 341° North 151 174 5,100  Level Atlanta Center
Sun 09:14:48 PM 34.7394 -81.2508 345° North 150 173 5,100  Level Atlanta Center
Sun 09:15:54 PM 34.7814 -81.2669 342° North 152 175 5,100  Level Atlanta Center
Sun 09:17:02 PM 34.8294 -81.2681 359° North 149 171 5,100  Level Atlanta Center
Sun 09:18:02 PM 34.8711 -81.2589 10° North 147 169 5,100  Level Atlanta Center
Sun 09:19:03 PM 34.9106 -81.2553 North 150 173 5,100  Level Atlanta Center
Sun 09:19:58 PM 34.9500 -81.2489 North 151 174 5,100 -52 Level Atlanta Center
Sun 09:20:59 PM 34.9894 -81.2372 14° North 153 176 5,000 -99 Descending Atlanta Center
Sun 09:21:59 PM 35.0331 -81.2333 North 155 178 4,900 -248 Descending Atlanta Center
Sun 09:23:00 PM 35.0767 -81.2242 10° North 160 184 4,500 -362 Descending Atlanta Center
Sun 09:23:55 PM 35.1183 -81.2203 North 165 190 4,200 -197 Descending Atlanta Center
Sun 09:25:02 PM 35.1725 -81.2133 North 166 191 4,100 -49 Descending Atlanta Center
Sun 09:25:57 PM 35.2097 -81.2044 11° North 157 181 4,100  Level Atlanta Center
Sun 09:27:04 PM 35.2578 -81.2003 North 161 185 4,100  Level Atlanta Center
Sun 09:28:04 PM 35.3017 -81.2089 351° North 164 189 4,100  Level Atlanta Center
Sun 09:28:59 PM 35.3458 -81.2228 346° North 168 193 4,100  Level Atlanta Center

Login

Don't have an account? Register now (free) for customized features, flight alerts, and more!